Sonic Adventure (DX): Time Rankings

Records: Times | Rings | Scores | Races | Bosses | Freestyle
Leaders: Times | Rings | Scores | Races | Bosses | Freestyle | Overall
Rank Player Percent Points Date
1 Gamepro011 99.2% 42 09-22-18
2 Sonicspeedruner 98.3% 96 09-22-18
3 Dashjump 94.5% 311 09-22-18
4 Jawzun 94.4% 316 09-22-18
5 DarkPolarNight 93.6% 365 09-22-18
6 drminus 91.4% 491 09-22-18
7 F-Man 91.2% 498 09-22-18
8 THC98 90.9% 520 09-22-18
9 ike6252 88.8% 637 09-22-18
10 Avento128bits 88.4% 658 09-22-18
11 francisco 88.3% 667 09-22-18
12 ethmar 87.7% 698 09-22-18
13 DarkspinesSonic 87.7% 702 09-22-18
14 Marth 87.6% 706 09-22-18
15 frankoredstrato 86.2% 786 09-22-18
16 TheRealShadnic 84.6% 881 09-22-18
17 chainchumper 84.5% 885 09-22-18
18 Paragod 83.5% 942 09-22-18
19 HyperSonic7701 83.2% 959 09-22-18
20 Calfd 82.9% 977 09-22-18
21 Coolfansonic 80.1% 1136 09-22-18
22 InferSaime 80.0% 1140 09-22-18
23 Stefan 78.7% 1216 09-22-18
24 xXMegaManXx 78.6% 1223 09-22-18
25 PfoSonic 78.2% 1245 09-22-18
26 bertin 76.4% 1348 09-22-18
27 yoshifan 75.9% 1375 09-22-18
28 Dave Cramer 74.4% 1461 09-22-18
29 RPGnutter 74.1% 1480 09-22-18
30 sonicam 72.4% 1574 09-22-18
31 Cybrax 72.2% 1588 09-22-18
32 Ring Rush 69.5% 1742 09-22-18
33 Nim 69.3% 1755 09-22-18
34 mike89 68.8% 1783 09-22-18
35 NintenDan 68.5% 1800 09-22-18
36 a_moustache 67.4% 1864 09-22-18
37 chaos shadow 65.3% 1985 09-22-18
38 SkyLights 65.0% 2000 09-22-18
39 Dekuboy 65.0% 2001 09-22-18
40 Combo 63.6% 2079 09-22-18
41 Niczur 62.7% 2131 09-22-18
42 SADXTryHard 61.4% 2204 09-22-18
43 P1 Pause 60.6% 2250 09-22-18
44 Groudon199 58.7% 2358 09-22-18
45 Game_Complete 58.3% 2381 09-22-18
46 AxlThunder 58.2% 2387 09-22-18
47 Shadow Jacky 58.1% 2396 09-22-18
48 VMU Player Banned 57.3% 2440 09-22-18
49 Thorn 56.8% 2470 09-22-18
50 SB737 55.7% 2529 09-22-18
51 The Knuckles Chao 55.6% 2537 09-22-18
52 Chao_Fan 55.2% 2558 09-22-18
52 SadisticMystic 55.2% 2558 09-22-18
54 Parax 55.2% 2562 09-22-18
55 Mastakirby 55.0% 2573 09-22-18
56 KinkyCadence 54.4% 2608 09-22-18
57 LittleBigness 54.3% 2609 09-22-18
58 mauserman 54.2% 2618 09-22-18
59 OmegaDJ 54.1% 2622 09-22-18
60 Psyknux 53.9% 2634 09-22-18
61 Auriman1 53.5% 2655 09-22-18
62 magnum12 53.4% 2664 09-22-18
63 Turbos 53.0% 2684 09-22-18
64 GerbilSoft 52.3% 2724 09-22-18
65 GreatStar 52.2% 2733 09-22-18
66 Webber3000 51.8% 2757 09-22-18
67 Hipertails12 51.0% 2798 09-22-18
68 N 50.9% 2804 09-22-18
69 James_Bertolli 48.6% 2936 09-22-18
70 Cream147 48.2% 2960 09-22-18
71 welldooder64 47.7% 2988 09-22-18
72 Skylace 47.7% 2991 09-22-18
73 Omega Rafael Santos 47.3% 3010 09-22-18
74 Quartz 47.1% 3023 09-22-18
75 Diamond 46.9% 3035 09-22-18
76 Psymar 46.9% 3037 09-22-18
77 SonicWinDX 46.4% 3066 09-22-18
78 teamblackarms 45.8% 3097 09-22-18
79 Andrea Ritsu 45.2% 3133 09-22-18
79 Cyan Ryan 45.2% 3133 09-22-18
81 buddychaos0415 44.9% 3150 09-22-18
82 SilverSonic 44.5% 3170 09-22-18
83 paulie9990 44.3% 3186 09-22-18
84 SilvertheAlmighty 43.8% 3215 09-22-18
85 itsPersonnal 43.5% 3229 09-22-18
85 WeegeeZV 43.5% 3229 09-22-18
87 metanightmare22 43.0% 3256 09-22-18
88 lordmetalsonic 40.9% 3379 09-22-18
89 Arch 40.4% 3408 09-22-18
90 Termon 39.7% 3445 09-22-18
91 videogamemaster777 39.5% 3457 09-22-18
92 supersonicfan 39.2% 3478 09-22-18
93 Drakodan 38.8% 3498 09-22-18
94 Kanimayo_Jp 38.6% 3511 09-22-18
95 LilZero 38.4% 3524 09-22-18
96 supersonic465 38.1% 3540 09-22-18
97 FuzZerd 38.1% 3541 09-22-18
98 JamminX42 37.5% 3575 09-22-18
99 eggFL 37.4% 3579 09-22-18
100 BigAL49 37.1% 3593 09-22-18
101 Don 36.8% 3610 09-22-18
102 danieldude 36.7% 3620 09-22-18
103 Siavash Tazari 35.9% 3667 09-22-18
104 Fr3nZy 35.6% 3680 09-22-18
105 f0rever_zer0 34.9% 3720 09-22-18
106 Cod4Scopes 34.9% 3724 09-22-18
107 LinksDarkArrows 33.9% 3780 09-22-18
108 Therio 33.8% 3782 09-22-18
109 Austinf 33.5% 3802 09-22-18
110 elecmouse101 33.1% 3827 09-22-18
111 Staf 32.7% 3845 09-22-18
112 MiStEr_ShAoLiN 32.4% 3866 09-22-18
113 Twilisailor 32.3% 3872 09-22-18
114 ModifiedMonkee 32.2% 3877 09-22-18
115 BrokenArthritis 32.0% 3888 09-22-18
116 videogamer1014 31.9% 3894 09-22-18
117 Xia 31.4% 3919 09-22-18
118 AC-Tygo 31.1% 3937 09-22-18
119 welshmoose05 31.0% 3944 09-22-18
120 OddCook 30.3% 3985 09-22-18
121 The Great Lord Mick 30.0% 4003 09-22-18
122 Mcshuggets 29.6% 4023 09-22-18
123 Aitamen 29.6% 4025 09-22-18
124 Maxinfamily 29.5% 4029 09-22-18
125 Matt_TY 29.1% 4056 09-22-18
126 joecoolgames 29.0% 4060 09-22-18
127 dabestgamer 28.8% 4069 09-22-18
128 SuperBlitzCraig 28.5% 4085 09-22-18
129 Irregular Zero 28.4% 4093 09-22-18
130 CoEmpathy 28.0% 4117 09-22-18
131 Shadowthegreat 27.5% 4146 09-22-18
131 SuperSonic101 27.5% 4146 09-22-18
133 superjupi 27.4% 4148 09-22-18
134 Rolken 27.1% 4168 09-22-18
135 thewaytodawnnn 26.8% 4183 09-22-18
136 Hunters13 26.7% 4193 09-22-18
137 sonamyfan666 26.5% 4200 09-22-18
138 koinu93 26.5% 4202 09-22-18
139 iarebored 26.4% 4207 09-22-18
140 SaviourDC 26.3% 4214 09-22-18
141 Spinballwizard 26.3% 4215 09-22-18
142 SonicKnuckles 26.2% 4220 09-22-18
143 EngiNerd 25.1% 4282 09-22-18
144 adf 25.1% 4284 09-22-18
145 Megaman EXE565 24.3% 4328 09-22-18
146 The T 24.1% 4341 09-22-18
147 Sonic Singularity 23.5% 4372 09-22-18
148 Platformer 23.1% 4394 09-22-18
149 SeaWolf 22.9% 4410 09-22-18
149 timpkmn89 22.9% 4410 09-22-18
151 Pokemonmaster888 22.8% 4411 09-22-18
152 Swift Hobo 22.4% 4435 09-22-18
153 Sondow 22.1% 4453 09-22-18
154 Rickyman48 21.7% 4474 09-22-18
155 KitsuneYamaro 21.4% 4492 09-22-18
156 FoxBoy 21.2% 4503 09-22-18
157 Sm4sh 20.9% 4525 09-22-18
158 TFEC Headshot 20.7% 4533 09-22-18
159 Kogen Player Banned 20.6% 4538 09-22-18
160 Jerzia 20.4% 4550 09-22-18
161 Starlight Sable 19.9% 4578 09-22-18
162 HyperSonic64 19.5% 4602 09-22-18
163 IsisDazs 19.4% 4611 09-22-18
164 Powerjohn25 19.1% 4625 09-22-18
165 crazy1993 19.1% 4626 09-22-18
166 andres430 18.9% 4636 09-22-18
167 SonicU260 18.0% 4691 09-22-18
168 MPit08 17.6% 4712 09-22-18
169 Swinkly 17.4% 4722 09-22-18
170 SonicAD 17.3% 4727 09-22-18
171 sonicd5 17.1% 4738 09-22-18
172 iSonicKid2K 17.0% 4748 09-22-18
173 dShadow 16.8% 4758 09-22-18
174 Cutiefox 16.4% 4781 09-22-18
175 Chawkk 16.3% 4783 09-22-18
176 Monkeh 16.0% 4803 09-22-18
177 Miles9999 15.9% 4807 09-22-18
178 Crispian 15.7% 4822 09-22-18
179 DaDude 15.2% 4851 09-22-18
180 Drflash55 15.0% 4860 09-22-18
181 Bass 14.9% 4864 09-22-18
182 Badlex727 14.7% 4876 09-22-18
182 Cruizer 14.7% 4876 09-22-18
184 Destroyer121121 14.7% 4879 09-22-18
185 superiorsonic 14.5% 4890 09-22-18
186 neaolas 14.4% 4896 09-22-18
187 Yish 14.3% 4901 09-22-18
188 zapp 14.3% 4902 09-22-18
189 UninspiredUsername 14.1% 4911 09-22-18
190 gamefreak1292 13.7% 4932 09-22-18
191 Cooljay 13.6% 4941 09-22-18
192 Sora_yx 13.3% 4960 09-22-18
193 Chaos_Overlord 12.7% 4990 09-22-18
194 GarnetPrincess 12.5% 5002 09-22-18
195 Valfore 12.3% 5013 09-22-18
196 Dage4Aquatic 11.9% 5036 09-22-18
197 soniccoloursunleashed 11.9% 5039 09-22-18
198 ShinigamiMachine 11.7% 5049 09-22-18
199 booo95 11.3% 5071 09-22-18
200 Sonicsuperstar1 11.2% 5076 09-22-18
201 sonicspeed 10.9% 5095 09-22-18
202 SirTobbii 10.8% 5099 09-22-18
203 Werey 10.8% 5101 09-22-18
204 FocusSight64 10.8% 5102 09-22-18
205 Mo Player Banned 10.6% 5114 09-22-18
206 Jua Rever 10.5% 5115 09-22-18
207 Venick409 9.6% 5168 09-22-18
208 Sithwarrior26 9.6% 5171 09-22-18
209 nman36 9.5% 5173 09-22-18
210 ingx24 9.1% 5200 09-22-18
211 CyberShadow 9.0% 5206 09-22-18
212 dekki1234 8.8% 5212 09-22-18
213 Fozer 8.6% 5227 09-22-18
214 Colomb_30 8.5% 5231 09-22-18
215 Egor305 8.4% 5236 09-22-18
216 Regano1000 8.3% 5245 09-22-18
217 1stKirbyever 8.0% 5259 09-22-18
217 douglas 8.0% 5259 09-22-18
219 nuckrieg 7.9% 5268 09-22-18
220 TimTH 7.7% 5275 09-22-18
221 Brian_pso 7.7% 5278 09-22-18
222 wheatrich 7.5% 5290 09-22-18
223 Zip 7.4% 5296 09-22-18
224 Th4tN1nj4Turtl3 7.4% 5297 09-22-18
225 TakaRikka 7.3% 5300 09-22-18
226 niscool 7.1% 5310 09-22-18
227 Mariosonic15 7.0% 5320 09-22-18
228 ieatatsonic 6.7% 5336 09-22-18
228 MStitomix 6.7% 5336 09-22-18
228 Triseena 6.7% 5336 09-22-18
231 HermitHelmet 6.6% 5341 09-22-18
232 Cort_pso 6.3% 5359 09-22-18
233 Artie 6.2% 5361 09-22-18
234 Got4n 6.2% 5362 09-22-18
235 BlankTH 6.0% 5375 09-22-18
236 Jose_15 5.9% 5379 09-22-18
237 SuperSonicfan9595 5.7% 5392 09-22-18
238 Richied 5.6% 5397 09-22-18
239 Ace747 5.5% 5404 09-22-18
240 HHNNBBHHN 5.4% 5409 09-22-18
241 Paixii 5.2% 5419 09-22-18
242 Aiko 5.2% 5420 09-22-18
243 slade23 5.0% 5434 09-22-18
244 Mankster101 4.9% 5437 09-22-18
245 BallzeH 4.9% 5438 09-22-18
246 FSSRandomvids 4.8% 5441 09-22-18
247 ArcticDragon 4.8% 5443 09-22-18
248 PsyBorg 4.8% 5444 09-22-18
249 BecauseWarAnvil 4.8% 5445 09-22-18
250 Jamixesa 4.7% 5450 09-22-18
251 Nickson98 4.6% 5454 09-22-18
252 Crydio 4.5% 5460 09-22-18
253 TheUltraBlur 4.4% 5466 09-22-18
254 MarewBFN 4.2% 5477 09-22-18
255 stanski 4.2% 5479 09-22-18
255 tal39h 4.2% 5479 09-22-18
257 ALundstrom10 4.1% 5481 09-22-18
258 knuckles_sonic8 3.9% 5493 09-22-18
259 Blue Infamy 3.9% 5495 09-22-18
260 p0ker 3.9% 5497 09-22-18
261 R3FR4G 3.8% 5501 09-22-18
262 ErrortheCucco 3.7% 5506 09-22-18
263 Rikum22 3.7% 5509 09-22-18
264 sonic1001 3.5% 5517 09-22-18
265 TheChaosEmeraIds 3.4% 5521 09-22-18
266 syco1098 3.4% 5524 09-22-18
267 AJSIV 3.4% 5526 09-22-18
268 Sonic the Hedgehod16 3.3% 5529 09-22-18
269 ASINISTERTACO 3.2% 5535 09-22-18
270 sonicfan9 3.1% 5542 09-22-18
271 MK 2.9% 5551 09-22-18
271 themachoman202 2.9% 5551 09-22-18
273 Fivavoa 2.8% 5560 09-22-18
274 Mr. Jones 2.7% 5562 09-22-18
275 BlackArmsShadow 2.7% 5564 09-22-18
275 djmat 2.7% 5564 09-22-18
277 arcfx1985 2.7% 5565 09-22-18
278 ptorflaxendrosis 2.6% 5568 09-22-18
279 Sonique Hedgehog 2.6% 5570 09-22-18
280 FlandreScarlet9999vr 2.5% 5573 09-22-18
281 Zeldocto 2.5% 5575 09-22-18
282 KaM Mark MaK 2.4% 5579 09-22-18
283 BeeAwwb 2.4% 5581 09-22-18
284 ShadouZaHejjihoggu 2.3% 5586 09-22-18
285 darkstarblaze 2.3% 5588 09-22-18
286 Sarger001 2.2% 5591 09-22-18
287 Sonic The Star 2.2% 5594 09-22-18
288 darkersupershadic 2.2% 5595 09-22-18
289 SpiritDragon1995 2.1% 5596 09-22-18
290 sonic29887 2.0% 5602 09-22-18
291 Grady219 2.0% 5603 09-22-18
292 BioShadow 2.0% 5604 09-22-18
293 shadowblast63 Player Banned 1.9% 5608 09-22-18
294 Jawaah 1.9% 5609 09-22-18
295 Antek 1.9% 5612 09-22-18
296 Klaus 1.8% 5614 09-22-18
297 SkyBon 1.7% 5619 09-22-18
298 Shanekilz 1.4% 5636 09-22-18
299 isaihtb11 1.3% 5641 09-22-18
300 zaktu40 1.3% 5642 09-22-18
301 OhNoes! 1.3% 5643 09-22-18
302 gaara1234 1.3% 5645 09-22-18
303 S-MS32X-S 1.2% 5649 09-22-18
304 MastaToken 1.2% 5652 09-22-18
305 Mister_Slick 1.0% 5659 09-22-18
306 ArthurVGCP 1.0% 5660 09-22-18
307 Rush Hero 1.0% 5662 09-22-18
307 Sonic06Fan 1.0% 5662 09-22-18
309 ChaosNexuss 1.0% 5663 09-22-18
310 SonicMega167 0.9% 5668 09-22-18
311 oTaiIilLsS 0.8% 5670 09-22-18
312 gamed00d 0.8% 5671 09-22-18
312 SilverK 0.8% 5671 09-22-18
314 Heroes_Hater 0.7% 5679 09-22-18
315 Redd 0.6% 5681 09-22-18
316 Burningskull123 0.5% 5687 09-22-18
317 Sonicontherun 0.4% 5698 09-22-18
318 antiwwe 0.2% 5704 09-22-18
319 Iwannabelink 0.2% 5706 09-22-18
320 Genuine Hedgehog 0.2% 5707 09-22-18
320 SonataSpinDash 0.2% 5707 09-22-18
322 dragondragon18 0.1% 5711 09-22-18
323 SonicK100 0.1% 5713 09-22-18
324 Tyrouble 0.0% 5718 09-22-18
325 LancexExWx 0.0% 5721 09-22-18
325 neji_hyuuga 0.0% 5721 09-22-18
325 Over 0.0% 5721 09-22-18
325 sdj6707 Player Banned 0.0% 5721 09-22-18
325 Tran Sonic Fan Player Banned 0.0% 5721 09-22-18

This page is using the New Data Table System. [FUTURE]

Game ID: 3 | Category ID: 1
Hits: 2,551 | Hits This Month: 12 | DB Calls: 25 | Mem Usage: 5.66 MB | Time: 0.15s | Printable

The Sonic Center v3.9
Copyright 2003-2011 by The Sonic Center Team.